sensor_id;sensor_type;location;lat;lon;timestamp;temperature;humidity
48488;DHT22;34289;48.572;13.378;2023-03-01T00:01:08;-0.50;99.90
48488;DHT22;34289;48.572;13.378;2023-03-01T00:03:34;-0.50;99.90
48488;DHT22;34289;48.572;13.378;2023-03-01T00:06:00;0.90;99.90
48488;DHT22;34289;48.572;13.378;2023-03-01T00:08:27;-0.40;99.90
48488;DHT22;34289;48.572;13.378;2023-03-01T00:11:18;-0.40;99.90
48488;DHT22;34289;48.572;13.378;2023-03-01T00:13:44;-0.40;99.90
48488;DHT22;34289;48.572;13.378;2023-03-01T00:16:16;-0.30;99.90
48488;DHT22;34289;48.572;13.378;2023-03-01T00:18:42;-0.20;99.90
48488;DHT22;34289;48.572;13.378;2023-03-01T00:21:08;-0.20;99.90
48488;DHT22;34289;48.572;13.378;2023-03-01T00:23:35;-0.20;99.90
48488;DHT22;34289;48.572;13.378;2023-03-01T00:26:00;-0.60;99.90
48488;DHT22;34289;48.572;13.378;2023-03-01T00:28:26;-0.80;99.90
48488;DHT22;34289;48.572;13.378;2023-03-01T00:30:52;-1.00;99.90
48488;DHT22;34289;48.572;13.378;2023-03-01T00:33:18;-0.90;99.90
48488;DHT22;34289;48.572;13.378;2023-03-01T00:35:44;-0.80;99.90
48488;DHT22;34289;48.572;13.378;2023-03-01T00:38:09;-0.70;99.90
48488;DHT22;34289;48.572;13.378;2023-03-01T00:40:35;-0.90;99.90
48488;DHT22;34289;48.572;13.378;2023-03-01T00:43:01;-0.90;99.90
48488;DHT22;34289;48.572;13.378;2023-03-01T00:45:27;-1.00;99.90
48488;DHT22;34289;48.572;13.378;2023-03-01T00:47:53;-1.20;99.90
48488;DHT22;34289;48.572;13.378;2023-03-01T00:50:20;-1.30;99.90
48488;DHT22;34289;48.572;13.378;2023-03-01T00:52:46;-1.40;99.90
48488;DHT22;34289;48.572;13.378;2023-03-01T00:55:12;-1.50;99.90
48488;DHT22;34289;48.572;13.378;2023-03-01T00:57:38;-1.20;99.90
48488;DHT22;34289;48.572;13.378;2023-03-01T01:00:07;-1.20;99.90
48488;DHT22;34289;48.572;13.378;2023-03-01T01:02:33;-1.40;99.90
48488;DHT22;34289;48.572;13.378;2023-03-01T01:04:59;-1.30;99.90
48488;DHT22;34289;48.572;13.378;2023-03-01T01:07:25;-1.40;99.90
48488;DHT22;34289;48.572;13.378;2023-03-01T01:09:51;-1.80;99.90
48488;DHT22;34289;48.572;13.378;2023-03-01T01:12:19;-1.80;99.90
48488;DHT22;34289;48.572;13.378;2023-03-01T01:14:45;-1.80;99.90
48488;DHT22;34289;48.572;13.378;2023-03-01T01:17:11;-1.60;99.90
48488;DHT22;34289;48.572;13.378;2023-03-01T01:19:37;-0.50;99.90
48488;DHT22;34289;48.572;13.378;2023-03-01T01:22:03;-1.40;99.90
48488;DHT22;34289;48.572;13.378;2023-03-01T01:24:29;-1.40;99.90
48488;DHT22;34289;48.572;13.378;2023-03-01T01:26:55;-1.60;99.90
48488;DHT22;34289;48.572;13.378;2023-03-01T01:29:20;-1.70;99.90
48488;DHT22;34289;48.572;13.378;2023-03-01T01:31:46;-1.80;99.90
48488;DHT22;34289;48.572;13.378;2023-03-01T01:34:20;-1.60;99.90
48488;DHT22;34289;48.572;13.378;2023-03-01T01:36:51;-1.50;99.90
48488;DHT22;34289;48.572;13.378;2023-03-01T01:39:18;-1.80;99.90
48488;DHT22;34289;48.572;13.378;2023-03-01T01:41:44;-1.90;99.90
48488;DHT22;34289;48.572;13.378;2023-03-01T01:44:16;-1.90;99.90
48488;DHT22;34289;48.572;13.378;2023-03-01T01:49:36;-2.20;99.90
48488;DHT22;34289;48.572;13.378;2023-03-01T01:57:32;-2.40;99.90
48488;DHT22;34289;48.572;13.378;2023-03-01T02:00:14;-2.40;99.90
48488;DHT22;34289;48.572;13.378;2023-03-01T02:02:40;-2.20;99.90
48488;DHT22;34289;48.572;13.378;2023-03-01T02:05:56;-2.30;99.90
48488;DHT22;34289;48.572;13.378;2023-03-01T02:08:27;-2.50;99.90
48488;DHT22;34289;48.572;13.378;2023-03-01T02:10:54;-2.30;99.90
48488;DHT22;34289;48.572;13.378;2023-03-01T02:13:22;-2.50;99.90
48488;DHT22;34289;48.572;13.378;2023-03-01T02:15:48;-2.60;99.90
48488;DHT22;34289;48.572;13.378;2023-03-01T02:18:17;-2.50;99.90
48488;DHT22;34289;48.572;13.378;2023-03-01T02:20:59;-2.70;99.90
48488;DHT22;34289;48.572;13.378;2023-03-01T02:23:25;-2.80;99.90
48488;DHT22;34289;48.572;13.378;2023-03-01T02:26:01;-2.80;99.90
48488;DHT22;34289;48.572;13.378;2023-03-01T02:28:40;-2.90;99.90
48488;DHT22;34289;48.572;13.378;2023-03-01T02:31:07;-2.90;99.90
48488;DHT22;34289;48.572;13.378;2023-03-01T02:33:53;-2.70;99.90
48488;DHT22;34289;48.572;13.378;2023-03-01T02:36:22;-2.60;99.90
48488;DHT22;34289;48.572;13.378;2023-03-01T02:38:52;-2.70;99.90
48488;DHT22;34289;48.572;13.378;2023-03-01T02:41:20;-2.80;99.90
48488;DHT22;34289;48.572;13.378;2023-03-01T02:43:46;-2.80;99.90
48488;DHT22;34289;48.572;13.378;2023-03-01T02:46:21;-2.60;99.90
48488;DHT22;34289;48.572;13.378;2023-03-01T02:48:53;-2.70;99.90
48488;DHT22;34289;48.572;13.378;2023-03-01T02:57:17;-2.80;99.90
48488;DHT22;34289;48.572;13.378;2023-03-01T02:59:43;-2.90;99.90
48488;DHT22;34289;48.572;13.378;2023-03-01T03:02:20;-3.00;99.90
48488;DHT22;34289;48.572;13.378;2023-03-01T03:05:17;-3.00;99.90
48488;DHT22;34289;48.572;13.378;2023-03-01T03:07:45;-3.00;99.90
48488;DHT22;34289;48.572;13.378;2023-03-01T03:10:21;-3.00;99.90
48488;DHT22;34289;48.572;13.378;2023-03-01T03:12:56;-3.20;99.90
48488;DHT22;34289;48.572;13.378;2023-03-01T03:15:22;-3.10;99.90
48488;DHT22;34289;48.572;13.378;2023-03-01T03:17:49;-3.00;99.90
48488;DHT22;34289;48.572;13.378;2023-03-01T03:20:17;-3.00;99.90
48488;DHT22;34289;48.572;13.378;2023-03-01T03:22:48;-3.20;99.90
48488;DHT22;34289;48.572;13.378;2023-03-01T03:25:16;-3.40;99.90
48488;DHT22;34289;48.572;13.378;2023-03-01T03:27:43;-3.30;99.90
48488;DHT22;34289;48.572;13.378;2023-03-01T03:30:17;-3.30;99.90
48488;DHT22;34289;48.572;13.378;2023-03-01T03:32:45;-3.20;99.90
48488;DHT22;34289;48.572;13.378;2023-03-01T03:35:28;-3.10;99.90
48488;DHT22;34289;48.572;13.378;2023-03-01T03:37:56;-3.00;99.90
48488;DHT22;34289;48.572;13.378;2023-03-01T03:40:34;-2.80;99.90
48488;DHT22;34289;48.572;13.378;2023-03-01T03:43:00;-2.90;99.90
48488;DHT22;34289;48.572;13.378;2023-03-01T03:45:26;-3.30;99.90
48488;DHT22;34289;48.572;13.378;2023-03-01T03:47:51;-3.30;99.90
48488;DHT22;34289;48.572;13.378;2023-03-01T03:50:17;-3.30;99.90
48488;DHT22;34289;48.572;13.378;2023-03-01T03:52:43;-3.50;99.90
48488;DHT22;34289;48.572;13.378;2023-03-01T03:55:12;-3.40;99.90
48488;DHT22;34289;48.572;13.378;2023-03-01T03:57:39;-3.20;99.90
48488;DHT22;34289;48.572;13.378;2023-03-01T04:00:07;-3.20;99.90
48488;DHT22;34289;48.572;13.378;2023-03-01T04:02:41;-3.50;99.90
48488;DHT22;34289;48.572;13.378;2023-03-01T04:05:08;-3.60;99.90
48488;DHT22;34289;48.572;13.378;2023-03-01T04:07:35;-3.60;99.90
48488;DHT22;34289;48.572;13.378;2023-03-01T04:10:02;-3.40;99.90
48488;DHT22;34289;48.572;13.378;2023-03-01T04:12:28;-3.30;99.90
48488;DHT22;34289;48.572;13.378;2023-03-01T04:14:54;-3.20;99.90
48488;DHT22;34289;48.572;13.378;2023-03-01T04:17:19;-3.60;99.90
48488;DHT22;34289;48.572;13.378;2023-03-01T04:19:45;-3.70;99.90
48488;DHT22;34289;48.572;13.378;2023-03-01T04:22:14;-3.60;99.90
48488;DHT22;34289;48.572;13.378;2023-03-01T04:24:44;-3.30;99.90
48488;DHT22;34289;48.572;13.378;2023-03-01T04:27:10;-3.30;99.90
48488;DHT22;34289;48.572;13.378;2023-03-01T04:29:35;-3.60;99.90
48488;DHT22;34289;48.572;13.378;2023-03-01T04:32:01;-3.70;99.90
48488;DHT22;34289;48.572;13.378;2023-03-01T04:34:28;-3.80;99.90
48488;DHT22;34289;48.572;13.378;2023-03-01T04:36:54;-3.80;99.90
48488;DHT22;34289;48.572;13.378;2023-03-01T04:39:20;-3.80;99.90
48488;DHT22;34289;48.572;13.378;2023-03-01T04:41:46;-3.70;99.90
48488;DHT22;34289;48.572;13.378;2023-03-01T04:44:11;-3.40;99.90
48488;DHT22;34289;48.572;13.378;2023-03-01T04:46:38;-3.50;99.90
48488;DHT22;34289;48.572;13.378;2023-03-01T04:49:04;-3.50;99.90
48488;DHT22;34289;48.572;13.378;2023-03-01T04:51:31;-3.70;99.90
48488;DHT22;34289;48.572;13.378;2023-03-01T04:53:58;-3.80;99.90
48488;DHT22;34289;48.572;13.378;2023-03-01T04:56:23;-4.00;99.90
48488;DHT22;34289;48.572;13.378;2023-03-01T04:58:49;-4.00;99.90
48488;DHT22;34289;48.572;13.378;2023-03-01T05:01:17;-3.80;99.90
48488;DHT22;34289;48.572;13.378;2023-03-01T05:03:45;-3.70;99.90
48488;DHT22;34289;48.572;13.378;2023-03-01T05:06:11;-3.60;99.90
48488;DHT22;34289;48.572;13.378;2023-03-01T05:08:40;-3.40;99.90
48488;DHT22;34289;48.572;13.378;2023-03-01T05:11:06;-3.70;99.90
48488;DHT22;34289;48.572;13.378;2023-03-01T05:13:35;-3.70;99.90
48488;DHT22;34289;48.572;13.378;2023-03-01T05:16:02;-3.80;99.90
48488;DHT22;34289;48.572;13.378;2023-03-01T05:18:29;-3.80;99.90
48488;DHT22;34289;48.572;13.378;2023-03-01T05:21:01;-2.50;99.90
48488;DHT22;34289;48.572;13.378;2023-03-01T05:23:26;-3.80;99.90
48488;DHT22;34289;48.572;13.378;2023-03-01T05:25:52;-3.90;99.90
48488;DHT22;34289;48.572;13.378;2023-03-01T05:28:19;-4.00;99.90
48488;DHT22;34289;48.572;13.378;2023-03-01T05:30:46;-4.10;99.90
48488;DHT22;34289;48.572;13.378;2023-03-01T05:33:12;-3.70;99.90
48488;DHT22;34289;48.572;13.378;2023-03-01T05:35:43;-3.50;99.90
48488;DHT22;34289;48.572;13.378;2023-03-01T05:38:12;-3.80;99.90
48488;DHT22;34289;48.572;13.378;2023-03-01T05:40:39;-4.00;99.90
48488;DHT22;34289;48.572;13.378;2023-03-01T05:43:05;-4.10;99.90
48488;DHT22;34289;48.572;13.378;2023-03-01T05:45:31;-4.30;99.90
48488;DHT22;34289;48.572;13.378;2023-03-01T05:48:00;-4.50;99.90
48488;DHT22;34289;48.572;13.378;2023-03-01T05:50:27;-4.30;99.90
48488;DHT22;34289;48.572;13.378;2023-03-01T05:53:26;-4.50;99.90
48488;DHT22;34289;48.572;13.378;2023-03-01T05:55:51;-4.20;99.90
48488;DHT22;34289;48.572;13.378;2023-03-01T05:58:19;-4.20;99.90
48488;DHT22;34289;48.572;13.378;2023-03-01T06:00:46;-3.70;99.90
48488;DHT22;34289;48.572;13.378;2023-03-01T06:03:14;-3.60;99.90
48488;DHT22;34289;48.572;13.378;2023-03-01T06:05:41;-3.60;99.90
48488;DHT22;34289;48.572;13.378;2023-03-01T06:08:09;-3.50;99.90
48488;DHT22;34289;48.572;13.378;2023-03-01T06:10:35;-3.40;99.90
48488;DHT22;34289;48.572;13.378;2023-03-01T06:13:01;-3.30;99.90
48488;DHT22;34289;48.572;13.378;2023-03-01T06:15:26;-3.70;99.90
48488;DHT22;34289;48.572;13.378;2023-03-01T06:17:54;-4.00;99.90
48488;DHT22;34289;48.572;13.378;2023-03-01T06:20:23;-3.90;99.90
48488;DHT22;34289;48.572;13.378;2023-03-01T06:22:49;-3.50;99.90
48488;DHT22;34289;48.572;13.378;2023-03-01T06:25:18;-3.50;99.90
48488;DHT22;34289;48.572;13.378;2023-03-01T06:27:45;-2.70;99.90
48488;DHT22;34289;48.572;13.378;2023-03-01T06:30:12;-3.60;99.90
48488;DHT22;34289;48.572;13.378;2023-03-01T06:32:39;-3.60;99.90
48488;DHT22;34289;48.572;13.378;2023-03-01T06:35:12;-3.20;99.90
48488;DHT22;34289;48.572;13.378;2023-03-01T06:37:38;-2.90;99.90
48488;DHT22;34289;48.572;13.378;2023-03-01T06:40:05;-2.80;99.90
48488;DHT22;34289;48.572;13.378;2023-03-01T06:42:35;-2.70;99.90
48488;DHT22;34289;48.572;13.378;2023-03-01T06:45:01;-2.60;99.90
48488;DHT22;34289;48.572;13.378;2023-03-01T06:47:27;-2.40;99.90
48488;DHT22;34289;48.572;13.378;2023-03-01T06:49:53;-2.10;99.90
48488;DHT22;34289;48.572;13.378;2023-03-01T06:52:18;-2.00;99.90
48488;DHT22;34289;48.572;13.378;2023-03-01T06:54:44;-1.80;99.90
48488;DHT22;34289;48.572;13.378;2023-03-01T06:57:09;-0.60;99.90
48488;DHT22;34289;48.572;13.378;2023-03-01T06:59:35;1.20;99.90
48488;DHT22;34289;48.572;13.378;2023-03-01T07:02:01;4.20;99.90
48488;DHT22;34289;48.572;13.378;2023-03-01T07:04:26;5.40;99.90
48488;DHT22;34289;48.572;13.378;2023-03-01T07:06:54;5.50;99.90
48488;DHT22;34289;48.572;13.378;2023-03-01T07:09:22;6.50;99.90
48488;DHT22;34289;48.572;13.378;2023-03-01T07:11:48;7.50;99.90
48488;DHT22;34289;48.572;13.378;2023-03-01T07:14:13;8.20;98.80
48488;DHT22;34289;48.572;13.378;2023-03-01T07:16:39;9.00;96.90
48488;DHT22;34289;48.572;13.378;2023-03-01T07:19:05;9.90;96.20
48488;DHT22;34289;48.572;13.378;2023-03-01T07:21:31;10.90;94.00
48488;DHT22;34289;48.572;13.378;2023-03-01T07:23:56;11.70;91.60
48488;DHT22;34289;48.572;13.378;2023-03-01T07:26:22;11.80;91.40
48488;DHT22;34289;48.572;13.378;2023-03-01T07:28:48;12.40;89.50
48488;DHT22;34289;48.572;13.378;2023-03-01T07:31:14;12.30;88.80
48488;DHT22;34289;48.572;13.378;2023-03-01T07:33:40;11.90;90.20
48488;DHT22;34289;48.572;13.378;2023-03-01T07:36:06;12.70;88.10
48488;DHT22;34289;48.572;13.378;2023-03-01T07:38:32;13.80;86.30
48488;DHT22;34289;48.572;13.378;2023-03-01T07:41:03;14.60;82.70
48488;DHT22;34289;48.572;13.378;2023-03-01T07:43:29;14.20;82.40
48488;DHT22;34289;48.572;13.378;2023-03-01T07:45:58;16.10;77.30
48488;DHT22;34289;48.572;13.378;2023-03-01T07:48:24;15.60;75.20
48488;DHT22;34289;48.572;13.378;2023-03-01T07:50:50;14.00;79.60
48488;DHT22;34289;48.572;13.378;2023-03-01T07:53:15;13.60;77.90
48488;DHT22;34289;48.572;13.378;2023-03-01T07:55:41;12.10;79.30
48488;DHT22;34289;48.572;13.378;2023-03-01T07:58:07;10.70;82.70
48488;DHT22;34289;48.572;13.378;2023-03-01T08:00:32;11.20;83.50
48488;DHT22;34289;48.572;13.378;2023-03-01T08:03:01;12.00;82.60
48488;DHT22;34289;48.572;13.378;2023-03-01T08:05:28;13.00;81.00
48488;DHT22;34289;48.572;13.378;2023-03-01T08:07:54;13.30;79.10
48488;DHT22;34289;48.572;13.378;2023-03-01T08:10:20;11.70;80.20
48488;DHT22;34289;48.572;13.378;2023-03-01T08:12:45;10.00;82.00
48488;DHT22;34289;48.572;13.378;2023-03-01T08:15:11;10.20;82.30
48488;DHT22;34289;48.572;13.378;2023-03-01T08:17:37;9.20;87.50
48488;DHT22;34289;48.572;13.378;2023-03-01T08:20:03;10.20;86.20
48488;DHT22;34289;48.572;13.378;2023-03-01T08:22:31;11.30;83.60
48488;DHT22;34289;48.572;13.378;2023-03-01T08:24:57;11.10;82.70
48488;DHT22;34289;48.572;13.378;2023-03-01T08:27:22;12.40;84.80
48488;DHT22;34289;48.572;13.378;2023-03-01T08:29:48;13.70;78.70
48488;DHT22;34289;48.572;13.378;2023-03-01T08:32:13;13.00;79.20
48488;DHT22;34289;48.572;13.378;2023-03-01T08:34:39;11.10;80.40
48488;DHT22;34289;48.572;13.378;2023-03-01T08:37:05;10.00;85.00
48488;DHT22;34289;48.572;13.378;2023-03-01T08:39:30;11.20;84.00
48488;DHT22;34289;48.572;13.378;2023-03-01T08:41:57;12.70;82.60
48488;DHT22;34289;48.572;13.378;2023-03-01T08:44:22;14.20;76.70
48488;DHT22;34289;48.572;13.378;2023-03-01T08:46:50;15.00;76.20
48488;DHT22;34289;48.572;13.378;2023-03-01T08:49:18;14.70;76.60
48488;DHT22;34289;48.572;13.378;2023-03-01T08:51:45;14.80;75.10
48488;DHT22;34289;48.572;13.378;2023-03-01T08:54:16;14.80;75.90
48488;DHT22;34289;48.572;13.378;2023-03-01T08:56:42;13.60;75.90
48488;DHT22;34289;48.572;13.378;2023-03-01T08:59:09;12.10;80.10
48488;DHT22;34289;48.572;13.378;2023-03-01T09:01:34;13.20;78.80
48488;DHT22;34289;48.572;13.378;2023-03-01T09:04:00;13.10;79.90
48488;DHT22;34289;48.572;13.378;2023-03-01T09:06:26;14.00;75.40
48488;DHT22;34289;48.572;13.378;2023-03-01T09:08:51;14.80;76.30
48488;DHT22;34289;48.572;13.378;2023-03-01T09:11:21;16.10;73.90
48488;DHT22;34289;48.572;13.378;2023-03-01T09:13:47;15.40;72.00
48488;DHT22;34289;48.572;13.378;2023-03-01T09:16:15;11.90;78.10
48488;DHT22;34289;48.572;13.378;2023-03-01T09:18:41;10.60;82.90
48488;DHT22;34289;48.572;13.378;2023-03-01T09:21:15;12.20;80.70
48488;DHT22;34289;48.572;13.378;2023-03-01T09:23:43;14.10;76.90
48488;DHT22;34289;48.572;13.378;2023-03-01T09:26:11;12.30;76.50
48488;DHT22;34289;48.572;13.378;2023-03-01T09:28:37;11.80;78.80
48488;DHT22;34289;48.572;13.378;2023-03-01T09:31:04;10.50;81.50
48488;DHT22;34289;48.572;13.378;2023-03-01T09:33:31;12.10;83.20
48488;DHT22;34289;48.572;13.378;2023-03-01T09:36:05;13.70;76.10
48488;DHT22;34289;48.572;13.378;2023-03-01T09:38:32;12.70;82.20
48488;DHT22;34289;48.572;13.378;2023-03-01T09:41:00;14.70;77.10
48488;DHT22;34289;48.572;13.378;2023-03-01T09:43:50;13.50;78.10
48488;DHT22;34289;48.572;13.378;2023-03-01T09:46:21;11.70;79.00
48488;DHT22;34289;48.572;13.378;2023-03-01T09:49:01;11.70;83.50
48488;DHT22;34289;48.572;13.378;2023-03-01T09:51:34;12.20;83.60
48488;DHT22;34289;48.572;13.378;2023-03-01T09:54:04;13.10;80.10
48488;DHT22;34289;48.572;13.378;2023-03-01T09:56:41;14.80;78.80
48488;DHT22;34289;48.572;13.378;2023-03-01T09:59:30;15.90;76.70
48488;DHT22;34289;48.572;13.378;2023-03-01T10:10:47;11.90;78.80
48488;DHT22;34289;48.572;13.378;2023-03-01T10:13:17;11.60;84.80
48488;DHT22;34289;48.572;13.378;2023-03-01T10:15:51;13.20;80.00
48488;DHT22;34289;48.572;13.378;2023-03-01T10:18:22;14.80;77.60
48488;DHT22;34289;48.572;13.378;2023-03-01T10:23:29;16.80;74.40
48488;DHT22;34289;48.572;13.378;2023-03-01T10:28:40;17.40;73.20
48488;DHT22;34289;48.572;13.378;2023-03-01T10:31:14;18.20;70.60
48488;DHT22;34289;48.572;13.378;2023-03-01T10:33:41;17.70;68.50
48488;DHT22;34289;48.572;13.378;2023-03-01T10:36:07;15.40;73.60
48488;DHT22;34289;48.572;13.378;2023-03-01T10:38:55;14.40;74.90
48488;DHT22;34289;48.572;13.378;2023-03-01T10:41:23;14.50;74.90
48488;DHT22;34289;48.572;13.378;2023-03-01T10:43:55;14.80;74.60
48488;DHT22;34289;48.572;13.378;2023-03-01T10:46:35;15.40;76.50
48488;DHT22;34289;48.572;13.378;2023-03-01T10:51:43;17.10;74.80
48488;DHT22;34289;48.572;13.378;2023-03-01T10:54:28;17.50;73.90
48488;DHT22;34289;48.572;13.378;2023-03-01T10:56:57;17.80;71.40
48488;DHT22;34289;48.572;13.378;2023-03-01T11:02:45;18.40;72.20
48488;DHT22;34289;48.572;13.378;2023-03-01T11:05:24;18.50;70.50
48488;DHT22;34289;48.572;13.378;2023-03-01T11:07:54;17.50;72.00
48488;DHT22;34289;48.572;13.378;2023-03-01T11:10:36;16.70;73.70
48488;DHT22;34289;48.572;13.378;2023-03-01T11:13:17;14.60;76.70
48488;DHT22;34289;48.572;13.378;2023-03-01T11:15:44;13.20;78.30
48488;DHT22;34289;48.572;13.378;2023-03-01T11:18:23;13.00;78.60
48488;DHT22;34289;48.572;13.378;2023-03-01T11:20:51;13.10;82.00
48488;DHT22;34289;48.572;13.378;2023-03-01T11:23:19;12.50;81.70
48488;DHT22;34289;48.572;13.378;2023-03-01T11:26:07;11.60;86.10
48488;DHT22;34289;48.572;13.378;2023-03-01T11:28:36;11.60;86.20
48488;DHT22;34289;48.572;13.378;2023-03-01T11:31:07;11.80;87.00
48488;DHT22;34289;48.572;13.378;2023-03-01T11:36:35;11.40;89.00
48488;DHT22;34289;48.572;13.378;2023-03-01T11:39:17;10.80;90.30
48488;DHT22;34289;48.572;13.378;2023-03-01T11:41:48;11.10;92.30
48488;DHT22;34289;48.572;13.378;2023-03-01T11:44:24;11.80;89.30
48488;DHT22;34289;48.572;13.378;2023-03-01T11:47:17;12.10;91.50
48488;DHT22;34289;48.572;13.378;2023-03-01T11:50:03;12.20;87.50
48488;DHT22;34289;48.572;13.378;2023-03-01T11:52:46;12.10;89.40
48488;DHT22;34289;48.572;13.378;2023-03-01T11:58:26;11.40;90.90
48488;DHT22;34289;48.572;13.378;2023-03-01T12:03:45;11.60;90.50
48488;DHT22;34289;48.572;13.378;2023-03-01T12:09:12;11.60;91.80
48488;DHT22;34289;48.572;13.378;2023-03-01T12:17:30;11.90;90.90
48488;DHT22;34289;48.572;13.378;2023-03-01T12:28:14;12.30;90.30
48488;DHT22;34289;48.572;13.378;2023-03-01T12:31:14;12.00;91.50
48488;DHT22;34289;48.572;13.378;2023-03-01T12:48:36;11.00;91.50
48488;DHT22;34289;48.572;13.378;2023-03-01T12:51:08;11.00;92.00
48488;DHT22;34289;48.572;13.378;2023-03-01T12:53:40;10.90;92.70
48488;DHT22;34289;48.572;13.378;2023-03-01T12:56:10;11.30;93.70
48488;DHT22;34289;48.572;13.378;2023-03-01T12:59:02;11.80;93.00
48488;DHT22;34289;48.572;13.378;2023-03-01T13:09:22;11.40;92.60
48488;DHT22;34289;48.572;13.378;2023-03-01T13:11:49;11.40;92.60
48488;DHT22;34289;48.572;13.378;2023-03-01T13:16:49;11.90;92.80
48488;DHT22;34289;48.572;13.378;2023-03-01T13:19:17;11.40;93.00
48488;DHT22;34289;48.572;13.378;2023-03-01T13:21:44;11.40;94.40
48488;DHT22;34289;48.572;13.378;2023-03-01T13:24:33;11.70;93.00
48488;DHT22;34289;48.572;13.378;2023-03-01T13:34:58;11.30;93.50
48488;DHT22;34289;48.572;13.378;2023-03-01T13:37:35;11.60;93.90
48488;DHT22;34289;48.572;13.378;2023-03-01T13:42:51;11.00;94.00
48488;DHT22;34289;48.572;13.378;2023-03-01T13:45:38;11.20;93.90
48488;DHT22;34289;48.572;13.378;2023-03-01T13:50:43;11.40;93.60
48488;DHT22;34289;48.572;13.378;2023-03-01T13:53:15;10.90;94.80
48488;DHT22;34289;48.572;13.378;2023-03-01T13:55:45;11.10;94.80
48488;DHT22;34289;48.572;13.378;2023-03-01T13:58:27;11.30;93.10
48488;DHT22;34289;48.572;13.378;2023-03-01T14:00:58;11.20;93.20
48488;DHT22;34289;48.572;13.378;2023-03-01T14:03:24;11.20;93.30
48488;DHT22;34289;48.572;13.378;2023-03-01T14:06:09;11.30;94.90
48488;DHT22;34289;48.572;13.378;2023-03-01T14:08:37;11.00;94.10
48488;DHT22;34289;48.572;13.378;2023-03-01T14:11:29;11.20;94.20
48488;DHT22;34289;48.572;13.378;2023-03-01T14:19:30;10.50;95.20
48488;DHT22;34289;48.572;13.378;2023-03-01T14:22:21;10.50;95.50
48488;DHT22;34289;48.572;13.378;2023-03-01T14:24:56;10.80;95.60
48488;DHT22;34289;48.572;13.378;2023-03-01T14:27:32;10.60;94.40
48488;DHT22;34289;48.572;13.378;2023-03-01T14:30:02;10.30;95.30
48488;DHT22;34289;48.572;13.378;2023-03-01T14:32:30;10.40;96.10
48488;DHT22;34289;48.572;13.378;2023-03-01T14:34:58;10.20;95.80
48488;DHT22;34289;48.572;13.378;2023-03-01T14:37:29;10.30;95.90
48488;DHT22;34289;48.572;13.378;2023-03-01T14:39:56;10.00;95.70
48488;DHT22;34289;48.572;13.378;2023-03-01T14:42:24;10.00;96.20
48488;DHT22;34289;48.572;13.378;2023-03-01T14:44:54;10.10;96.90
48488;DHT22;34289;48.572;13.378;2023-03-01T14:47:32;9.90;95.40
48488;DHT22;34289;48.572;13.378;2023-03-01T14:50:02;9.50;96.50
48488;DHT22;34289;48.572;13.378;2023-03-01T14:52:41;9.60;96.90
48488;DHT22;34289;48.572;13.378;2023-03-01T14:55:19;9.60;96.80
48488;DHT22;34289;48.572;13.378;2023-03-01T14:57:48;9.70;97.50
48488;DHT22;34289;48.572;13.378;2023-03-01T15:00:22;9.90;97.60
48488;DHT22;34289;48.572;13.378;2023-03-01T15:02:51;10.10;96.50
48488;DHT22;34289;48.572;13.378;2023-03-01T15:05:51;10.10;96.90
48488;DHT22;34289;48.572;13.378;2023-03-01T15:08:24;10.10;96.70
48488;DHT22;34289;48.572;13.378;2023-03-01T15:11:05;10.00;96.90
48488;DHT22;34289;48.572;13.378;2023-03-01T15:13:41;10.10;96.30
48488;DHT22;34289;48.572;13.378;2023-03-01T15:16:12;10.00;97.30
48488;DHT22;34289;48.572;13.378;2023-03-01T15:18:50;9.90;97.10
48488;DHT22;34289;48.572;13.378;2023-03-01T15:21:20;9.70;97.10
48488;DHT22;34289;48.572;13.378;2023-03-01T15:23:50;9.60;98.10
48488;DHT22;34289;48.572;13.378;2023-03-01T15:26:25;9.70;97.50
48488;DHT22;34289;48.572;13.378;2023-03-01T15:28:55;9.60;97.70
48488;DHT22;34289;48.572;13.378;2023-03-01T15:31:25;9.70;97.70
48488;DHT22;34289;48.572;13.378;2023-03-01T15:33:51;9.70;98.00
48488;DHT22;34289;48.572;13.378;2023-03-01T15:38:57;9.50;98.10
48488;DHT22;34289;48.572;13.378;2023-03-01T15:41:29;9.40;98.10
48488;DHT22;34289;48.572;13.378;2023-03-01T15:43:57;9.40;98.60
48488;DHT22;34289;48.572;13.378;2023-03-01T15:46:32;9.20;98.20
48488;DHT22;34289;48.572;13.378;2023-03-01T15:49:04;9.00;98.80
48488;DHT22;34289;48.572;13.378;2023-03-01T15:51:34;8.90;98.40
48488;DHT22;34289;48.572;13.378;2023-03-01T15:54:17;8.80;98.90
48488;DHT22;34289;48.572;13.378;2023-03-01T15:56:43;8.80;99.30
48488;DHT22;34289;48.572;13.378;2023-03-01T15:59:10;8.70;99.90
48488;DHT22;34289;48.572;13.378;2023-03-01T16:01:42;8.60;99.80
48488;DHT22;34289;48.572;13.378;2023-03-01T16:04:12;8.60;99.90
48488;DHT22;34289;48.572;13.378;2023-03-01T16:06:41;8.50;99.90
48488;DHT22;34289;48.572;13.378;2023-03-01T16:09:07;8.60;99.90
48488;DHT22;34289;48.572;13.378;2023-03-01T16:11:35;8.60;99.90
48488;DHT22;34289;48.572;13.378;2023-03-01T16:14:03;8.40;99.90
48488;DHT22;34289;48.572;13.378;2023-03-01T16:16:28;8.40;99.90
48488;DHT22;34289;48.572;13.378;2023-03-01T16:18:54;8.40;99.90
48488;DHT22;34289;48.572;13.378;2023-03-01T16:21:25;8.40;99.90
48488;DHT22;34289;48.572;13.378;2023-03-01T16:23:51;8.20;99.90
48488;DHT22;34289;48.572;13.378;2023-03-01T16:26:17;8.20;99.90
48488;DHT22;34289;48.572;13.378;2023-03-01T16:28:45;8.00;99.90
48488;DHT22;34289;48.572;13.378;2023-03-01T16:31:11;8.00;99.90
48488;DHT22;34289;48.572;13.378;2023-03-01T16:33:40;8.10;99.90
48488;DHT22;34289;48.572;13.378;2023-03-01T16:36:08;7.90;99.90
48488;DHT22;34289;48.572;13.378;2023-03-01T16:38:34;7.80;99.90
48488;DHT22;34289;48.572;13.378;2023-03-01T16:41:00;7.80;99.90
48488;DHT22;34289;48.572;13.378;2023-03-01T16:43:26;7.70;99.90
48488;DHT22;34289;48.572;13.378;2023-03-01T16:45:51;7.80;99.90
48488;DHT22;34289;48.572;13.378;2023-03-01T16:48:17;7.50;99.90
48488;DHT22;34289;48.572;13.378;2023-03-01T16:50:43;7.40;99.90
48488;DHT22;34289;48.572;13.378;2023-03-01T16:53:08;7.10;99.90
48488;DHT22;34289;48.572;13.378;2023-03-01T16:55:34;7.00;99.90
48488;DHT22;34289;48.572;13.378;2023-03-01T16:58:00;7.00;99.90
48488;DHT22;34289;48.572;13.378;2023-03-01T17:00:26;7.00;99.90
48488;DHT22;34289;48.572;13.378;2023-03-01T17:02:51;6.90;99.90
48488;DHT22;34289;48.572;13.378;2023-03-01T17:05:17;6.80;99.90
48488;DHT22;34289;48.572;13.378;2023-03-01T17:07:46;6.60;99.90
48488;DHT22;34289;48.572;13.378;2023-03-01T17:10:11;6.60;99.90
48488;DHT22;34289;48.572;13.378;2023-03-01T17:12:37;7.20;99.90
48488;DHT22;34289;48.572;13.378;2023-03-01T17:15:04;6.60;99.90
48488;DHT22;34289;48.572;13.378;2023-03-01T17:17:33;6.50;99.90
48488;DHT22;34289;48.572;13.378;2023-03-01T17:19:59;6.40;99.90